Bordelum Airport EDWA

Flugplatz Daten

Name: Bordelum Airport

Ident: EDWA

Lat: 54,62749863

Long: 8,930277824

Platzhöhe: 3 ft

IataCode:

City: Bredstedt

Metar

2021/10/26 14:01
CYLD 261401Z 02008KT 12SM -SHSN BKN009 BKN100 M00/M01 A3015 RMK SC6AC1 CVCTV CLDS EMBD OBS TAKEN BY AF CHECKED BY EDWARD SLP236

Taf

Gewünschte Webcam nicht vorhanden? Dann fügen Sie eine hinzu. Sie wird dann so schnell wie möglich freigeschaltet
Url: Title: